createdAt,value
2022-10-31T06:49:50.298Z,6.15
2022-10-31T06:52:57.280Z,16.02
2022-10-31T06:55:59.296Z,7.40
2022-10-31T06:59:01.346Z,6.43
2022-10-31T07:02:03.180Z,6.10
2022-10-31T07:05:05.270Z,7.68
2022-10-31T07:08:09.774Z,11.23
2022-10-31T07:11:11.790Z,6.55
2022-10-31T07:14:13.489Z,4.78
2022-10-31T07:17:15.195Z,4.60
2022-10-31T07:20:17.094Z,5.32
2022-10-31T07:23:19.239Z,4.47
2022-10-31T07:26:20.974Z,5.18
2022-10-31T07:29:22.697Z,5.68
2022-10-31T07:32:24.364Z,8.35
2022-10-31T07:35:28.901Z,23.65
2022-10-31T07:38:30.627Z,5.63
2022-10-31T07:41:32.460Z,4.88
2022-10-31T07:44:34.159Z,5.22
2022-10-31T07:47:45.178Z,6.97
2022-10-31T07:50:47.239Z,5.32
2022-10-31T07:53:48.935Z,7.13
2022-10-31T07:56:50.636Z,6.18
2022-10-31T07:59:52.501Z,4.50
2022-10-31T08:03:04.429Z,4.20
2022-10-31T08:06:06.420Z,4.78
2022-10-31T08:09:08.085Z,4.30
2022-10-31T08:12:09.962Z,4.15
2022-10-31T08:15:11.649Z,4.32
2022-10-31T08:18:14.912Z,4.03
2022-10-31T08:21:16.776Z,4.65
2022-10-31T08:24:19.121Z,4.45
2022-10-31T08:27:20.806Z,4.53
2022-10-31T08:30:25.648Z,3.90
2022-10-31T08:33:27.433Z,4.72
2022-10-31T08:36:29.797Z,4.30
2022-10-31T08:39:31.451Z,4.88
2022-10-31T08:42:33.500Z,4.45
2022-10-31T08:45:35.699Z,5.40
2022-10-31T08:48:37.667Z,4.82
2022-10-31T08:51:39.389Z,3.95
2022-10-31T08:54:41.259Z,6.97
2022-10-31T08:57:42.964Z,5.45
2022-10-31T09:00:46.606Z,4.57
2022-10-31T09:03:48.360Z,5.43
2022-10-31T09:07:19.647Z,6.32
2022-10-31T09:10:12.091Z,4.95
2022-10-31T09:13:16.552Z,4.47
2022-10-31T09:16:18.257Z,6.50
2022-10-31T09:19:20.078Z,5.03
2022-10-31T09:22:21.773Z,4.97
2022-10-31T09:25:23.575Z,5.15
2022-10-31T09:28:25.333Z,5.15
2022-10-31T09:31:27.078Z,4.70
2022-10-31T09:34:28.815Z,3.90
2022-10-31T09:37:30.814Z,5.18
2022-10-31T09:40:37.767Z,5.15
2022-10-31T09:44:01.454Z,5.22
2022-10-31T09:47:25.957Z,8.65
2022-10-31T09:50:37.509Z,5.38
2022-10-31T09:54:03.147Z,5.20
2022-10-31T10:00:15.412Z,5.03
2022-10-31T10:03:39.915Z,4.47
2022-10-31T10:06:45.911Z,3.75
2022-10-31T10:09:47.790Z,5.00
2022-10-31T10:13:08.101Z,4.00
2022-10-31T10:16:34.594Z,3.83
2022-10-31T10:19:49.199Z,3.53
2022-10-31T10:23:09.534Z,3.70
2022-10-31T10:26:20.875Z,4.10
2022-10-31T10:29:35.743Z,4.28
2022-10-31T10:32:59.105Z,4.32
2022-10-31T10:36:04.919Z,3.80
2022-10-31T10:39:31.063Z,4.47
2022-10-31T10:42:53.176Z,4.47
2022-10-31T10:46:39.662Z,4.82
2022-10-31T10:49:51.267Z,4.22
2022-10-31T10:53:32.509Z,3.53
2022-10-31T10:56:46.076Z,3.75
2022-10-31T10:59:48.141Z,3.70
2022-10-31T11:02:50.787Z,3.75
2022-10-31T11:05:55.334Z,3.90
2022-10-31T11:08:57.082Z,3.72
2022-10-31T11:11:59.829Z,3.55
2022-10-31T11:15:20.482Z,4.50
2022-10-31T11:21:35.580Z,4.25
2022-10-31T11:24:41.533Z,4.45
2022-10-31T11:27:43.273Z,3.92
2022-10-31T11:30:49.000Z,3.75
2022-10-31T11:33:58.999Z,4.20
2022-10-31T11:37:16.104Z,4.28
2022-10-31T11:40:22.087Z,3.70
2022-10-31T11:43:24.573Z,3.80
2022-10-31T11:46:36.540Z,4.35
2022-10-31T11:49:42.868Z,4.20
2022-10-31T11:52:44.861Z,4.10
2022-10-31T11:55:47.684Z,4.13
2022-10-31T11:59:00.886Z,3.78
2022-10-31T12:02:03.074Z,3.75
2022-10-31T12:05:26.238Z,4.70
2022-10-31T12:08:32.330Z,4.53
2022-10-31T12:12:00.562Z,4.18
2022-10-31T12:15:29.972Z,4.13
2022-10-31T12:18:44.772Z,5.20
2022-10-31T12:22:13.242Z,4.70
2022-10-31T12:25:35.477Z,4.68
2022-10-31T12:29:01.033Z,4.85
2022-10-31T12:32:30.350Z,4.50
2022-10-31T12:35:43.761Z,4.60
2022-10-31T12:39:02.958Z,5.15
2022-10-31T12:42:31.820Z,5.32
2022-10-31T12:45:45.989Z,4.60
2022-10-31T12:49:13.102Z,5.00
2022-10-31T12:52:32.844Z,5.22
2022-10-31T12:56:07.532Z,5.50
2022-10-31T12:59:34.765Z,5.38
2022-10-31T13:03:03.903Z,5.47
2022-10-31T13:06:11.411Z,5.38
2022-10-31T13:09:18.884Z,5.15
2022-10-31T13:12:22.917Z,5.30
2022-10-31T13:15:28.741Z,4.97
2022-10-31T13:18:38.891Z,5.35
2022-10-31T13:21:49.450Z,6.28
2022-10-31T13:25:00.156Z,6.15
2022-10-31T13:28:06.147Z,4.80
2022-10-31T13:31:07.973Z,5.00
2022-10-31T13:34:30.040Z,5.57
2022-10-31T13:37:43.663Z,5.03
2022-10-31T13:40:56.379Z,5.50
2022-10-31T13:44:06.788Z,6.00
2022-10-31T13:47:28.557Z,6.35
2022-10-31T13:50:33.124Z,6.35
2022-10-31T13:53:40.570Z,7.20
2022-10-31T13:56:42.338Z,6.13
2022-10-31T13:59:52.608Z,6.75
2022-10-31T14:02:57.909Z,7.00
2022-10-31T14:06:00.341Z,6.88
2022-10-31T14:09:02.675Z,7.07
2022-10-31T14:12:09.436Z,6.78
2022-10-31T14:15:21.131Z,8.70
2022-10-31T14:18:29.755Z,7.03
2022-10-31T14:21:38.753Z,7.25
2022-10-31T14:24:40.489Z,6.97
2022-10-31T14:27:47.550Z,6.55
2022-10-31T14:30:56.053Z,7.15
2022-10-31T14:33:57.865Z,6.95
2022-10-31T14:37:26.784Z,6.93
2022-10-31T14:40:40.871Z,6.75
2022-10-31T14:44:12.420Z,8.50
2022-10-31T14:47:25.240Z,8.30
2022-10-31T14:50:50.243Z,7.60
2022-10-31T14:53:56.471Z,8.03
2022-10-31T14:57:05.092Z,7.50
2022-10-31T15:00:09.683Z,8.40
2022-10-31T15:03:34.454Z,9.32
2022-10-31T15:06:50.537Z,8.82
2022-10-31T15:10:02.126Z,7.82
2022-10-31T15:13:22.602Z,8.48
2022-10-31T15:16:30.018Z,8.95
2022-10-31T15:19:34.510Z,9.48
2022-10-31T15:22:36.258Z,7.63
2022-10-31T15:25:37.907Z,8.13
2022-10-31T15:28:39.954Z,8.50
2022-10-31T15:31:59.094Z,8.65
2022-10-31T15:35:00.881Z,7.93
2022-10-31T15:38:03.077Z,8.35
2022-10-31T15:41:39.692Z,9.88
2022-10-31T15:44:43.208Z,11.70
2022-10-31T15:47:50.280Z,10.40
2022-10-31T15:50:56.445Z,11.20
2022-10-31T15:53:59.080Z,12.02
2022-10-31T15:57:00.793Z,12.48
2022-10-31T16:00:02.638Z,10.57
2022-10-31T16:03:16.770Z,10.65
2022-10-31T16:06:21.564Z,10.27
2022-10-31T16:09:24.959Z,10.30
2022-10-31T16:12:35.607Z,11.55
2022-10-31T16:15:37.426Z,13.32
2022-10-31T16:18:41.162Z,15.85
2022-10-31T16:21:43.297Z,9.15
2022-10-31T16:24:50.731Z,10.95
2022-10-31T16:27:54.799Z,9.85
2022-10-31T16:30:57.847Z,9.10
2022-10-31T16:34:04.448Z,8.90
2022-10-31T16:37:06.112Z,8.98
2022-10-31T16:40:10.857Z,9.05
2022-10-31T16:43:14.736Z,8.93
2022-10-31T16:46:25.051Z,13.70
2022-10-31T16:49:26.943Z,12.23
2022-10-31T16:52:37.949Z,13.40
2022-10-31T16:55:49.641Z,8.60
2022-10-31T16:58:51.427Z,9.82
